Time;durP1;ratioP1;P1;durP2;ratioP2;P2;SDS_P1;SDS_P2;PMS_P1;PMS_P2;Temp;Humidity;BMP_temperature;BMP_pressure;BME280_temperature;BME280_humidity;BME280_pressure;Samples;Min_cycle;Max_cycle;Signal;HPM_P1;HPM_P2
2023/07/12 00:02:08;;;;;;;;;10.00;10.00;;;;;22.49;100.00;98637.00;6283590;27;96342;-65
2023/07/12 00:05:12;;;;;;;;;12.00;11.00;;;;;22.51;100.00;98637.53;6280760;27;96309;-65
2023/07/12 00:08:20;;;;;;;;;11.60;11.60;;;;;22.39;100.00;98634.47;6268140;27;96691;-65
2023/07/12 00:11:24;;;;;;;;;10.60;10.60;;;;;22.32;100.00;98628.56;6303756;27;96289;-65
2023/07/12 00:14:29;;;;;;;;;11.80;11.40;;;;;22.16;100.00;98616.25;6302695;27;96282;-65
2023/07/12 00:17:32;;;;;;;;;14.20;13.60;;;;;22.15;100.00;98612.69;6262814;27;99180;-65
2023/07/12 00:20:37;;;;;;;;;11.60;11.00;;;;;22.01;100.00;98590.72;6300721;27;96282;-65
2023/07/12 00:23:40;;;;;;;;;12.60;11.60;;;;;22.12;100.00;98613.31;6300995;27;96963;-65
2023/07/12 00:26:43;;;;;;;;;12.50;12.00;;;;;22.16;100.00;98608.81;6282425;27;96275;-66
2023/07/12 00:29:48;;;;;;;;;12.60;12.00;;;;;22.15;100.00;98603.63;6256184;27;97905;-65
2023/07/12 00:32:53;;;;;;;;;14.60;13.00;;;;;22.09;100.00;98594.66;6260688;27;96792;-65
2023/07/12 00:35:56;;;;;;;;;12.20;12.00;;;;;22.01;100.00;98581.66;6256138;27;96338;-65
2023/07/12 00:39:01;;;;;;;;;11.00;10.80;;;;;22.06;100.00;98594.47;6267392;27;96442;-66
2023/07/12 00:42:15;;;;;;;;;12.00;12.00;;;;;22.04;100.00;98598.31;6283154;27;96739;-65
2023/07/12 00:45:20;;;;;;;;;12.40;11.40;;;;;21.98;100.00;98587.78;6282734;27;96313;-65
2023/07/12 00:48:23;;;;;;;;;13.00;12.00;;;;;21.89;100.00;98590.34;6294347;27;96270;-65
2023/07/12 00:51:41;;;;;;;;;10.25;9.25;;;;;21.87;100.00;98587.09;6256958;27;98763;-64
2023/07/12 00:54:53;;;;;;;;;10.75;10.00;;;;;21.84;100.00;98584.97;6240991;27;96770;-65
2023/07/12 00:57:57;;;;;;;;;13.25;12.25;;;;;21.80;100.00;98578.44;6244275;27;97058;-65
2023/07/12 01:01:03;;;;;;;;;14.25;14.00;;;;;21.79;100.00;98584.25;6266723;27;96802;-65
2023/07/12 01:04:10;;;;;;;;;12.00;12.00;;;;;21.76;100.00;98580.16;6302292;27;97047;-65
2023/07/12 01:07:16;;;;;;;;;12.60;11.60;;;;;21.67;100.00;98578.41;6283292;27;98367;-65
2023/07/12 01:10:19;;;;;;;;;11.00;11.00;;;;;21.70;100.00;98575.88;6264580;27;96668;-65
2023/07/12 01:13:24;;;;;;;;;13.00;12.00;;;;;21.65;100.00;98573.22;6266040;27;98577;-66
2023/07/12 01:16:30;;;;;;;;;12.00;12.00;;;;;21.61;100.00;98573.03;6282292;27;96329;-65
2023/07/12 01:19:35;;;;;;;;;12.00;11.00;;;;;21.61;100.00;98564.78;6298054;27;96338;-65
2023/07/12 01:22:40;;;;;;;;;9.75;8.75;;;;;21.57;100.00;98563.78;6270716;27;96809;-65
2023/07/12 01:25:45;;;;;;;;;13.00;12.00;;;;;21.60;100.00;98565.91;6294335;27;96425;-65
2023/07/12 01:28:51;;;;;;;;;12.75;12.00;;;;;21.65;100.00;98561.47;6296513;27;96499;-65
2023/07/12 01:31:55;;;;;;;;;11.60;10.80;;;;;21.64;100.00;98557.91;6276854;27;96357;-64
2023/07/12 01:34:58;;;;;;;;;12.00;11.50;;;;;21.65;100.00;98554.03;6285353;27;96311;-65
2023/07/12 01:38:03;;;;;;;;;11.60;10.60;;;;;21.63;100.00;98549.97;6241180;27;98031;-65
2023/07/12 01:41:06;;;;;;;;;13.00;12.40;;;;;21.61;100.00;98559.31;6255073;27;99088;-64
2023/07/12 01:44:12;;;;;;;;;11.00;10.00;;;;;21.64;100.00;98557.09;6259910;27;96593;-65
2023/07/12 01:47:16;;;;;;;;;10.00;10.00;;;;;21.66;100.00;98558.41;6241260;27;96515;-64
2023/07/12 01:50:19;;;;;;;;;9.25;9.00;;;;;21.67;100.00;98560.03;6297157;27;96822;-65
2023/07/12 01:53:24;;;;;;;;;9.20;9.20;;;;;21.66;100.00;98554.84;6283590;27;96218;-65
2023/07/12 01:56:27;;;;;;;;;11.00;11.00;;;;;21.60;100.00;98556.84;6288105;27;96548;-65
2023/07/12 01:59:30;;;;;;;;;12.00;11.67;;;;;21.50;100.00;98541.38;6261436;27;98400;-65
2023/07/12 02:02:34;;;;;;;;;11.75;10.25;;;;;21.44;100.00;98537.13;6285315;27;97492;-65
2023/07/12 02:05:37;;;;;;;;;12.00;11.20;;;;;21.42;100.00;98541.28;6269829;27;99644;-64
2023/07/12 02:08:41;;;;;;;;;11.20;11.00;;;;;21.34;100.00;98533.75;6276872;27;96350;-64
2023/07/12 02:11:45;;;;;;;;;12.00;11.00;;;;;21.27;100.00;98525.88;6285325;27;96133;-64
2023/07/12 02:14:48;;;;;;;;;12.00;12.00;;;;;21.24;100.00;98521.03;6291274;27;96554;-65
2023/07/12 02:17:51;;;;;;;;;12.40;12.00;;;;;21.20;100.00;98511.78;6284391;27;98406;-64
2023/07/12 02:20:54;;;;;;;;;11.80;11.00;;;;;21.21;100.00;98509.84;6276947;27;96841;-65
2023/07/12 02:24:00;;;;;;;;;10.00;9.80;;;;;21.22;100.00;98511.44;6259209;27;98563;-65
2023/07/12 02:27:04;;;;;;;;;13.40;12.40;;;;;21.21;100.00;98513.38;6285181;27;97561;-65
2023/07/12 02:30:11;;;;;;;;;15.50;14.00;;;;;21.19;100.00;98510.13;6296555;27;96930;-65
2023/07/12 02:33:14;;;;;;;;;15.50;14.00;;;;;21.17;100.00;98504.13;6268677;27;96298;-65
2023/07/12 02:36:18;;;;;;;;;18.60;18.00;;;;;21.16;100.00;98508.78;6281620;27;96298;-65
2023/07/12 02:39:22;;;;;;;;;14.00;13.50;;;;;21.16;100.00;98494.28;6270580;27;98371;-64
2023/07/12 02:42:25;;;;;;;;;16.50;14.75;;;;;21.19;100.00;98490.94;6304178;27;96258;-65
2023/07/12 02:45:29;;;;;;;;;16.00;16.00;;;;;21.22;100.00;98495.00;6282031;27;96359;-65
2023/07/12 02:48:32;;;;;;;;;17.50;15.50;;;;;21.22;100.00;98498.56;6292242;27;96891;-65
2023/07/12 02:51:35;;;;;;;;;13.00;13.00;;;;;21.24;100.00;98504.56;6280577;27;96260;-65
2023/07/12 02:54:40;;;;;;;;;14.00;14.00;;;;;21.27;100.00;98494.91;6244829;27;98445;-65
2023/07/12 02:57:43;;;;;;;;;15.00;15.00;;;;;21.22;100.00;98486.78;6300937;27;96359;-64
2023/07/12 03:00:46;;;;;;;;;16.60;15.60;;;;;21.17;100.00;98491.25;6284503;27;96298;-64
2023/07/12 03:03:50;;;;;;;;;14.00;13.00;;;;;21.17;100.00;98482.19;6269103;27;96681;-65
2023/07/12 03:06:53;;;;;;;;;19.00;17.00;;;;;21.17;100.00;98469.31;6296006;27;96729;-64
2023/07/12 03:09:57;;;;;;;;;15.00;15.00;;;;;21.16;100.00;98469.59;6311792;27;96259;-64
2023/07/12 03:13:01;;;;;;;;;16.40;15.60;;;;;21.20;100.00;98467.91;6290935;27;96498;-65
2023/07/12 03:16:05;;;;;;;;;15.00;15.00;;;;;21.20;100.00;98462.44;6297638;27;96270;-64
2023/07/12 03:19:08;;;;;;;;;15.20;15.20;;;;;21.35;100.00;98462.16;6295414;27;96519;-65
2023/07/12 03:22:11;;;;;;;;;18.00;17.00;;;;;21.42;100.00;98462.56;6307981;27;96492;-65
2023/07/12 03:25:16;;;;;;;;;15.60;15.00;;;;;21.51;100.00;98470.91;6287225;27;96801;-65
2023/07/12 03:28:19;;;;;;;;;19.80;17.80;;;;;21.54;100.00;98476.59;6286989;27;96281;-64
2023/07/12 03:31:23;;;;;;;;;19.25;17.00;;;;;21.57;100.00;98478.72;6286691;27;97419;-65
2023/07/12 03:34:26;;;;;;;;;17.00;15.50;;;;;21.62;100.00;98475.06;6267645;27;96321;-65
2023/07/12 03:37:30;;;;;;;;;15.50;14.50;;;;;21.69;100.00;98475.50;6270019;27;98378;-64
2023/07/12 03:40:34;;;;;;;;;15.60;15.00;;;;;21.78;100.00;98470.94;6274122;27;96943;-64
2023/07/12 03:43:37;;;;;;;;;16.00;15.60;;;;;21.80;100.00;98459.63;6267794;27;98599;-64
2023/07/12 03:46:41;;;;;;;;;16.50;15.50;;;;;21.94;100.00;98461.28;6294366;27;96496;-65
2023/07/12 03:49:44;;;;;;;;;16.40;15.40;;;;;21.98;100.00;98462.31;6262425;27;97836;-64
2023/07/12 03:52:47;;;;;;;;;16.00;15.00;;;;;22.04;100.00;98457.50;6271375;27;96775;-64
2023/07/12 03:55:52;;;;;;;;;15.00;13.80;;;;;22.12;100.00;98454.06;6282699;27;96358;-64
2023/07/12 03:58:56;;;;;;;;;17.25;16.25;;;;;22.18;100.00;98452.84;6274914;27;99370;-64
2023/07/12 04:01:59;;;;;;;;;14.50;13.25;;;;;22.27;100.00;98442.75;6289459;27;97507;-64
2023/07/12 04:05:02;;;;;;;;;16.00;15.00;;;;;22.38;100.00;98448.84;6292531;27;98894;-66
2023/07/12 04:08:06;;;;;;;;;16.40;16.00;;;;;22.47;100.00;98446.97;6271177;27;98449;-65
2023/07/12 04:11:24;;;;;;;;;13.00;12.00;;;;;22.64;100.00;98444.34;6275721;27;96327;-66
2023/07/12 04:14:27;;;;;;;;;15.60;15.00;;;;;22.74;100.00;98424.91;6289828;27;96280;-66
2023/07/12 04:17:30;;;;;;;;;15.40;14.00;;;;;22.85;100.00;98418.03;6272360;27;96266;-66
2023/07/12 04:20:37;;;;;;;;;18.00;17.00;;;;;22.98;100.00;98434.78;6272596;27;96422;-66
2023/07/12 04:23:40;;;;;;;;;14.00;13.40;;;;;23.13;100.00;98431.63;6290636;27;96157;-65
2023/07/12 04:26:48;;;;;;;;;16.40;14.40;;;;;23.28;100.00;98431.25;6290178;27;96342;-66
2023/07/12 04:29:51;;;;;;;;;15.00;15.00;;;;;23.44;100.00;98421.47;6287210;27;96398;-65
2023/07/12 04:32:54;;;;;;;;;17.60;15.60;;;;;23.59;100.00;98417.50;6289122;27;96334;-65
2023/07/12 04:35:58;;;;;;;;;14.50;13.00;;;;;23.79;100.00;98432.63;6254380;27;96422;-66
2023/07/12 04:39:01;;;;;;;;;16.60;14.00;;;;;23.91;100.00;98438.31;6273069;27;97396;-66
2023/07/12 04:42:07;;;;;;;;;14.60;13.60;;;;;23.94;100.00;98419.25;6279592;27;98535;-66
2023/07/12 04:45:12;;;;;;;;;14.25;14.25;;;;;24.18;100.00;98427.09;6267613;27;97194;-64
2023/07/12 04:48:16;;;;;;;;;17.00;15.00;;;;;24.41;100.00;98423.06;6266867;27;96407;-64
2023/07/12 04:51:19;;;;;;;;;17.00;16.00;;;;;24.57;100.00;98417.88;6248647;27;98941;-66
2023/07/12 04:54:22;;;;;;;;;15.60;14.60;;;;;24.72;100.00;98416.59;6277987;27;99097;-65
2023/07/12 04:57:27;;;;;;;;;14.00;13.00;;;;;24.83;100.00;98426.94;6309711;27;96370;-65
2023/07/12 05:00:30;;;;;;;;;15.00;14.00;;;;;24.97;100.00;98422.06;6292337;27;96755;-66
2023/07/12 05:03:33;;;;;;;;;14.00;13.40;;;;;25.09;100.00;98426.94;6313534;27;96301;-65
2023/07/12 05:06:36;;;;;;;;;14.40;13.40;;;;;25.24;100.00;98428.34;6312033;27;96370;-66
2023/07/12 05:09:40;;;;;;;;;13.60;13.00;;;;;25.40;100.00;98426.69;6314187;27;96700;-66
2023/07/12 05:12:44;;;;;;;;;15.40;14.00;;;;;25.63;100.00;98430.03;6276675;27;98966;-66
2023/07/12 05:15:51;;;;;;;;;15.00;13.00;;;;;25.84;100.00;98415.19;6271301;27;98944;-65
2023/07/12 05:18:55;;;;;;;;;13.60;12.00;;;;;26.17;100.00;98407.00;6275308;27;96292;-65
2023/07/12 05:21:58;;;;;;;;;16.40;14.00;;;;;26.52;100.00;98406.78;6275679;27;96730;-65
2023/07/12 05:25:02;;;;;;;;;12.00;11.20;;;;;26.77;100.00;98391.13;6292406;27;96901;-65
2023/07/12 05:28:06;;;;;;;;;13.80;12.80;;;;;26.97;100.00;98385.56;6268651;27;96304;-65
2023/07/12 05:31:11;;;;;;;;;15.00;14.00;;;;;27.09;100.00;98382.00;6276184;27;96740;-66
2023/07/12 05:34:15;;;;;;;;;13.00;13.00;;;;;27.19;100.00;98395.41;6266903;27;97638;-65
2023/07/12 05:37:19;;;;;;;;;15.00;15.00;;;;;27.21;100.00;98393.13;6269892;27;96290;-65
2023/07/12 05:40:22;;;;;;;;;13.40;12.40;;;;;27.30;100.00;98399.38;6285727;27;96412;-65
2023/07/12 05:43:27;;;;;;;;;14.00;12.00;;;;;27.32;100.00;98385.97;6254099;27;96745;-66
2023/07/12 05:46:31;;;;;;;;;14.00;13.00;;;;;27.33;100.00;98387.59;6267022;27;97202;-66
2023/07/12 05:49:35;;;;;;;;;14.60;14.20;;;;;27.38;100.00;98378.25;6262305;27;96598;-65
2023/07/12 05:52:39;;;;;;;;;12.00;12.00;;;;;27.42;100.00;98371.69;6262236;27;96966;-66
2023/07/12 05:55:42;;;;;;;;;13.00;12.20;;;;;27.48;100.00;98384.16;6254234;27;96741;-66
2023/07/12 05:58:47;;;;;;;;;15.20;12.80;;;;;27.46;100.00;98367.09;6278477;27;96883;-65
2023/07/12 06:01:50;;;;;;;;;12.00;12.00;;;;;27.62;100.00;98383.84;6252587;28;96829;-65
2023/07/12 06:04:53;;;;;;;;;13.00;11.00;;;;;27.71;100.00;98381.00;6239072;28;96750;-66
2023/07/12 06:07:57;;;;;;;;;13.80;12.00;;;;;27.75;100.00;98401.28;6241057;28;99150;-65
2023/07/12 06:11:00;;;;;;;;;13.00;13.00;;;;;27.82;100.00;98398.75;6240707;28;96289;-65
2023/07/12 06:14:04;;;;;;;;;13.40;12.60;;;;;27.91;100.00;98400.22;6260381;28;96562;-66
2023/07/12 06:17:08;;;;;;;;;12.20;11.20;;;;;28.00;100.00;98405.69;6221495;28;98457;-65
2023/07/12 06:20:12;;;;;;;;;15.00;13.40;;;;;28.08;100.00;98399.19;6257353;27;97241;-66
2023/07/12 06:23:15;;;;;;;;;15.00;13.00;;;;;28.17;100.00;98383.28;6259300;27;96556;-66
2023/07/12 06:26:18;;;;;;;;;14.00;13.25;;;;;28.29;100.00;98386.03;6283507;27;96391;-65
2023/07/12 06:29:24;;;;;;;;;12.25;12.00;;;;;28.39;100.00;98387.50;6266050;27;97088;-66
2023/07/12 06:32:27;;;;;;;;;16.00;14.20;;;;;28.50;100.00;98390.56;6274246;27;96440;-65
2023/07/12 06:35:31;;;;;;;;;15.60;13.40;;;;;28.53;100.00;98376.03;6261010;27;98417;-65
2023/07/12 06:38:34;;;;;;;;;15.00;14.50;;;;;28.68;100.00;98378.84;6301337;27;96391;-65
2023/07/12 06:41:37;;;;;;;;;14.00;13.40;;;;;28.77;100.00;98381.50;6282976;27;96454;-66
2023/07/12 06:44:42;;;;;;;;;16.20;14.20;;;;;28.87;100.00;98386.53;6250354;27;98524;-65
2023/07/12 06:47:46;;;;;;;;;14.40;14.40;;;;;28.85;100.00;98380.53;6266548;27;96820;-66
2023/07/12 06:50:49;;;;;;;;;12.20;11.20;;;;;28.75;100.00;98362.44;6285136;27;96338;-67
2023/07/12 06:53:53;;;;;;;;;12.60;11.60;;;;;28.91;100.00;98348.59;6299148;27;96285;-66
2023/07/12 06:56:56;;;;;;;;;14.50;13.50;;;;;29.16;100.00;98357.59;6296310;27;96293;-65
2023/07/12 07:00:05;;;;;;;;;14.00;13.00;;;;;29.42;100.00;98357.09;6279597;27;98235;-65
2023/07/12 07:03:12;;;;;;;;;14.00;13.00;;;;;29.62;100.00;98354.03;6279669;27;98498;-66
2023/07/12 07:06:17;;;;;;;;;12.60;12.00;;;;;29.83;100.00;98345.41;6294645;27;96293;-66
2023/07/12 07:09:20;;;;;;;;;11.00;10.00;;;;;30.07;100.00;98358.28;6292013;27;96841;-66
2023/07/12 07:12:23;;;;;;;;;10.60;9.60;;;;;30.33;98.89;98366.00;6286777;27;98799;-66
2023/07/12 07:15:28;;;;;;;;;8.00;8.00;;;;;30.62;94.55;98365.47;6305950;27;96346;-65
2023/07/12 07:18:31;;;;;;;;;8.00;8.00;;;;;30.97;94.46;98357.81;6285592;27;96589;-66
2023/07/12 07:21:38;;;;;;;;;10.00;9.00;;;;;31.35;91.02;98356.13;6256820;27;96780;-67
2023/07/12 07:24:42;;;;;;;;;7.33;7.00;;;;;31.62;87.62;98346.66;6283480;27;96610;-66
2023/07/12 07:27:45;;;;;;;;;11.40;10.00;;;;;31.84;83.79;98333.88;6293725;27;96266;-66
2023/07/12 07:30:56;;;;;;;;;10.00;9.00;;;;;31.80;75.02;98324.66;6294616;27;96382;-67
2023/07/12 07:33:59;;;;;;;;;10.25;10.00;;;;;31.81;75.58;98337.44;6295428;27;96114;-66
2023/07/12 07:37:02;;;;;;;;;9.00;9.00;;;;;31.98;81.87;98322.13;6301011;27;96316;-66
2023/07/12 07:40:07;;;;;;;;;9.00;9.00;;;;;32.30;82.73;98317.84;6281836;27;98252;-67
2023/07/12 07:43:11;;;;;;;;;11.20;10.20;;;;;32.34;77.36;98313.09;6310054;27;96391;-67
2023/07/12 07:46:17;;;;;;;;;11.00;10.00;;;;;32.70;82.16;98305.16;6310671;27;96327;-67
2023/07/12 07:49:20;;;;;;;;;11.75;10.75;;;;;33.07;81.14;98300.38;6311268;27;96198;-67
2023/07/12 07:52:23;;;;;;;;;9.60;8.60;;;;;33.50;79.30;98305.16;6291959;27;97102;-67
2023/07/12 07:55:27;;;;;;;;;9.00;8.00;;;;;33.90;77.98;98295.91;6292967;27;97295;-67
2023/07/12 07:58:30;;;;;;;;;12.40;11.60;;;;;34.35;75.48;98282.56;6288411;27;96487;-67
2023/07/12 08:01:35;;;;;;;;;14.00;13.00;;;;;34.61;70.37;98281.44;6286604;27;96354;-68
2023/07/12 08:04:41;;;;;;;;;11.00;10.50;;;;;34.82;68.70;98287.13;6271589;27;98440;-67
2023/07/12 08:07:47;;;;;;;;;9.00;8.80;;;;;34.84;63.02;98284.75;6270220;27;97646;-67
2023/07/12 08:10:50;;;;;;;;;11.00;8.80;;;;;34.82;58.95;98281.53;6270455;27;96401;-67
2023/07/12 08:13:53;;;;;;;;;10.75;10.50;;;;;34.93;63.19;98284.34;6287333;27;96205;-66
2023/07/12 08:16:58;;;;;;;;;10.00;10.00;;;;;34.95;56.58;98282.75;6269812;27;96236;-67
2023/07/12 08:20:01;;;;;;;;;9.20;9.00;;;;;34.94;60.10;98278.34;6270114;27;96793;-67
2023/07/12 08:23:04;;;;;;;;;9.40;9.00;;;;;34.93;62.73;98284.34;6252013;27;96673;-66
2023/07/12 08:26:08;;;;;;;;;11.00;10.40;;;;;34.64;60.52;98278.66;6287173;27;96908;-67
2023/07/12 08:29:11;;;;;;;;;10.50;10.00;;;;;34.59;62.23;98276.25;6252084;27;96678;-67
2023/07/12 08:32:17;;;;;;;;;9.00;8.00;;;;;34.44;60.03;98282.19;6288771;27;96344;-67
2023/07/12 08:35:20;;;;;;;;;11.80;9.80;;;;;34.52;61.11;98273.41;6252671;27;97269;-67
2023/07/12 08:38:36;;;;;;;;;10.00;10.00;;;;;34.41;60.56;98297.75;6278242;27;96691;-67
2023/07/12 08:41:40;;;;;;;;;10.00;9.00;;;;;34.55;55.72;98283.03;6268140;27;97017;-67
2023/07/12 08:44:43;;;;;;;;;10.80;10.00;;;;;34.47;55.27;98273.00;6270051;27;98364;-67
2023/07/12 08:47:51;;;;;;;;;10.00;9.40;;;;;34.59;56.72;98279.06;6290004;27;98496;-66
2023/07/12 08:50:54;;;;;;;;;11.00;9.80;;;;;34.78;55.91;98269.53;6313580;27;96849;-67
2023/07/12 08:53:58;;;;;;;;;10.25;10.00;;;;;35.25;56.90;98270.38;6287528;27;96286;-68
2023/07/12 08:57:18;;;;;;;;;10.00;10.00;;;;;35.16;55.50;98271.56;6286584;27;96323;-67
2023/07/12 09:00:23;;;;;;;;;11.00;10.00;;;;;35.52;56.16;98271.59;6286139;27;96269;-66
2023/07/12 09:03:27;;;;;;;;;10.60;10.60;;;;;35.57;52.82;98282.41;6258943;27;97656;-67
2023/07/12 09:06:31;;;;;;;;;8.60;8.00;;;;;35.42;52.75;98278.81;6298607;27;96321;-67
2023/07/12 09:09:36;;;;;;;;;11.00;11.00;;;;;35.42;52.82;98281.63;6294651;27;96281;-67
2023/07/12 09:12:39;;;;;;;;;12.00;10.40;;;;;35.42;52.00;98276.00;6272335;27;96712;-67
2023/07/12 09:15:46;;;;;;;;;11.00;10.50;;;;;35.43;54.66;98279.63;6268252;27;98954;-67
2023/07/12 09:18:53;;;;;;;;;11.50;9.50;;;;;35.34;52.38;98270.78;6287044;27;96285;-67
2023/07/12 09:22:00;;;;;;;;;8.00;7.00;;;;;35.26;51.36;98266.38;6310122;27;96477;-67
2023/07/12 09:25:20;;;;;;;;;9.00;8.00;;;;;35.20;52.43;98260.38;6305729;27;96958;-67
2023/07/12 09:28:24;;;;;;;;;11.00;10.00;;;;;35.12;50.08;98245.56;6250116;27;96673;-67
2023/07/12 09:31:30;;;;;;;;;9.50;9.50;;;;;35.24;52.69;98255.56;6267839;27;96923;-67
2023/07/12 09:34:37;;;;;;;;;9.75;9.00;;;;;35.35;52.77;98267.59;6285991;27;96263;-67
2023/07/12 09:37:41;;;;;;;;;10.00;10.00;;;;;35.38;51.31;98278.00;6268731;27;96221;-67
2023/07/12 09:40:47;;;;;;;;;9.40;9.00;;;;;35.37;50.13;98275.59;6295322;27;96394;-68
2023/07/12 09:43:54;;;;;;;;;9.00;9.00;;;;;35.43;51.09;98280.38;6305170;27;96841;-66
2023/07/12 09:47:03;;;;;;;;;11.00;11.00;;;;;35.28;52.99;98278.00;6267983;27;96703;-67
2023/07/12 09:50:16;;;;;;;;;11.00;11.00;;;;;34.89;54.16;98294.75;6286265;27;96318;-67
2023/07/12 09:53:34;;;;;;;;;9.40;9.40;;;;;34.31;65.02;98302.13;6268239;27;97322;-68
2023/07/12 09:56:43;;;;;;;;;13.75;13.00;;;;;33.61;79.66;98313.63;6295833;27;96337;-66
2023/07/12 09:59:59;;;;;;;;;13.60;13.00;;;;;32.78;93.65;98326.41;6315758;27;96848;-66
2023/07/12 10:03:14;;;;;;;;;13.60;12.00;;;;;32.07;100.00;98325.44;6316512;27;96253;-66
2023/07/12 10:06:32;;;;;;;;;13.50;12.00;;;;;31.37;100.00;98321.16;6298930;27;96361;-66
2023/07/12 10:09:37;;;;;;;;;13.00;13.00;;;;;30.90;100.00;98290.06;6318072;27;96298;-67
2023/07/12 10:12:47;;;;;;;;;12.00;11.00;;;;;30.58;100.00;98292.25;6317776;27;96507;-67
2023/07/12 10:15:50;;;;;;;;;10.60;10.00;;;;;30.32;100.00;98283.75;6300279;27;97304;-66
2023/07/12 10:18:56;;;;;;;;;16.40;15.40;;;;;29.95;100.00;98267.50;6300419;27;96695;-67
2023/07/12 10:22:05;;;;;;;;;16.00;14.00;;;;;29.78;100.00;98261.50;6299924;27;96867;-66
2023/07/12 10:25:20;;;;;;;;;11.20;10.80;;;;;29.74;100.00;98255.06;6292469;27;98611;-67
2023/07/12 10:28:34;;;;;;;;;11.80;10.80;;;;;29.55;100.00;98253.06;6306917;27;96327;-66
2023/07/12 10:31:44;;;;;;;;;13.00;12.00;;;;;29.68;100.00;98268.44;6306227;27;96387;-67
2023/07/12 10:34:54;;;;;;;;;12.60;12.00;;;;;29.88;100.00;98252.59;6304252;27;96961;-67
2023/07/12 10:38:03;;;;;;;;;11.25;11.00;;;;;30.13;100.00;98235.31;6323124;27;96455;-67
2023/07/12 10:41:12;;;;;;;;;13.60;12.00;;;;;30.40;100.00;98241.00;6304426;27;98974;-67
2023/07/12 10:44:20;;;;;;;;;13.80;12.20;;;;;30.61;100.00;98237.84;6322789;27;96314;-67
2023/07/12 10:47:30;;;;;;;;;13.00;11.60;;;;;30.73;100.00;98240.47;6322683;27;96418;-67
2023/07/12 10:50:37;;;;;;;;;12.00;12.00;;;;;30.92;100.00;98243.19;6322494;27;96936;-67
2023/07/12 10:53:51;;;;;;;;;12.40;12.00;;;;;31.26;100.00;98246.97;6317887;27;96876;-66
2023/07/12 10:56:56;;;;;;;;;13.00;12.00;;;;;31.58;100.00;98244.69;6282269;27;98520;-67
2023/07/12 11:00:03;;;;;;;;;11.40;11.00;;;;;32.01;100.00;98260.06;6286448;27;98956;-67
2023/07/12 11:03:20;;;;;;;;;12.00;12.00;;;;;32.55;100.00;98254.72;6321424;27;96413;-67
2023/07/12 11:06:25;;;;;;;;;12.00;11.00;;;;;32.82;100.00;98247.06;6321756;27;96422;-66
2023/07/12 11:10:04;;;;;;;;;11.00;10.00;;;;;32.85;100.00;98254.69;6320612;27;96284;-66
2023/07/12 11:13:13;;;;;;;;;11.50;10.50;;;;;33.19;100.00;98268.56;6296944;27;96344;-66
2023/07/12 11:16:19;;;;;;;;;13.00;12.00;;;;;33.23;100.00;98286.19;6319242;27;96365;-66
2023/07/12 11:19:42;;;;;;;;;11.50;11.50;;;;;33.39;100.00;98293.09;6282982;27;98500;-66
2023/07/12 11:22:55;;;;;;;;;12.40;11.40;;;;;33.87;100.00;98277.09;6319191;27;96964;-66
2023/07/12 11:26:04;;;;;;;;;11.60;11.00;;;;;34.13;100.00;98275.22;6301939;27;96772;-66
2023/07/12 11:29:29;;;;;;;;;11.00;11.00;;;;;34.45;100.00;98267.81;6272500;27;96291;-67
2023/07/12 11:32:37;;;;;;;;;13.00;13.00;;;;;34.78;93.93;98270.31;6310021;27;96375;-67
2023/07/12 11:35:47;;;;;;;;;11.20;10.00;;;;;34.86;88.17;98278.72;6315254;27;96264;-67
2023/07/12 11:38:51;;;;;;;;;11.00;11.00;;;;;35.09;93.00;98273.56;6301384;27;96332;-67
2023/07/12 11:41:55;;;;;;;;;10.00;9.60;;;;;35.09;93.65;98265.16;6254635;27;98779;-67
2023/07/12 11:45:05;;;;;;;;;12.00;11.60;;;;;34.89;90.40;98267.53;6288610;27;96714;-68
2023/07/12 11:48:09;;;;;;;;;10.00;10.00;;;;;34.44;93.40;98276.59;6290064;27;96336;-66
2023/07/12 11:51:22;;;;;;;;;13.00;13.00;;;;;34.23;95.67;98274.50;6290146;27;96173;-67
2023/07/12 11:54:27;;;;;;;;;12.00;12.00;;;;;33.75;96.15;98245.88;6306359;27;96714;-66
2023/07/12 11:57:39;;;;;;;;;12.20;10.80;;;;;33.22;98.56;98279.00;6269503;27;98478;-66
2023/07/12 12:00:46;;;;;;;;;12.00;12.00;;;;;32.67;100.00;98284.41;6271476;27;96339;-66
2023/07/12 12:03:50;;;;;;;;;10.00;9.50;;;;;32.54;100.00;98283.84;6271144;27;97128;-66
2023/07/12 12:06:56;;;;;;;;;10.80;9.80;;;;;32.25;92.80;98279.13;6290003;27;96392;-66
2023/07/12 12:10:00;;;;;;;;;14.25;13.50;;;;;32.27;93.08;98281.50;6304935;27;96269;-66
2023/07/12 12:13:27;;;;;;;;;11.00;10.00;;;;;32.12;88.97;98289.69;6294402;27;97721;-66
2023/07/12 12:16:32;;;;;;;;;10.00;9.00;;;;;31.91;87.68;98294.16;6295985;27;96253;-66
2023/07/12 12:19:35;;;;;;;;;10.20;9.00;;;;;31.86;88.18;98286.13;6296998;27;96701;-66
2023/07/12 12:22:41;;;;;;;;;11.00;10.00;;;;;31.80;89.68;98288.44;6278616;27;96923;-66
2023/07/12 12:25:47;;;;;;;;;9.40;9.40;;;;;31.74;90.22;98279.59;6300711;27;96116;-67
2023/07/12 12:28:53;;;;;;;;;13.00;12.80;;;;;31.82;89.57;98281.28;6252928;27;98351;-67
2023/07/12 12:32:04;;;;;;;;;9.60;9.60;;;;;31.79;86.75;98276.47;6288324;27;96255;-66
2023/07/12 12:35:13;;;;;;;;;10.20;10.00;;;;;31.82;84.82;98284.06;6270068;27;97016;-66
2023/07/12 12:38:21;;;;;;;;;11.00;10.00;;;;;31.83;84.92;98299.63;6269804;27;96719;-66
2023/07/12 12:41:24;;;;;;;;;9.00;8.00;;;;;31.61;86.26;98300.50;6277099;27;98359;-66
2023/07/12 12:44:30;;;;;;;;;9.20;9.20;;;;;31.49;87.09;98316.56;6286559;27;96475;-66
2023/07/12 12:47:35;;;;;;;;;8.00;7.25;;;;;31.27;90.33;98307.06;6275317;27;98525;-66
2023/07/12 12:50:39;;;;;;;;;8.00;8.00;;;;;31.23;91.85;98309.78;6298238;27;96303;-66
2023/07/12 12:53:45;;;;;;;;;10.00;8.60;;;;;31.09;92.29;98303.16;6294352;27;96285;-66
2023/07/12 12:56:56;;;;;;;;;12.60;10.60;;;;;30.93;92.78;98315.19;6269353;27;98343;-66
2023/07/12 13:00:21;;;;;;;;;9.00;9.00;;;;;30.75;91.32;98316.81;6288487;27;96295;-65
2023/07/12 13:03:29;;;;;;;;;11.00;11.00;;;;;30.63;92.96;98319.78;6268674;27;96669;-66
2023/07/12 13:06:36;;;;;;;;;10.40;10.40;;;;;30.57;93.09;98318.47;6287750;27;96304;-66
2023/07/12 13:09:39;;;;;;;;;12.60;10.60;;;;;30.58;94.08;98319.28;6295629;27;96269;-66
2023/07/12 13:12:45;;;;;;;;;10.25;8.75;;;;;30.76;94.01;98323.19;6306783;27;96338;-66
2023/07/12 13:16:16;;;;;;;;;11.00;10.00;;;;;30.91;93.43;98330.66;6292785;27;99125;-66
2023/07/12 13:19:24;;;;;;;;;10.00;9.00;;;;;30.99;93.86;98324.84;6310708;27;96160;-66
2023/07/12 13:22:30;;;;;;;;;12.00;11.00;;;;;31.06;91.97;98321.41;6296711;27;98022;-66
2023/07/12 13:25:38;;;;;;;;;12.00;12.00;;;;;31.30;91.80;98328.59;6285937;27;96293;-65
2023/07/12 13:28:42;;;;;;;;;11.00;11.00;;;;;31.58;91.80;98325.50;6287098;27;96772;-66
2023/07/12 13:31:45;;;;;;;;;13.00;11.20;;;;;31.86;89.16;98319.56;6297663;27;96915;-66
2023/07/12 13:34:51;;;;;;;;;11.00;11.00;;;;;32.07;86.87;98328.22;6270903;27;98270;-65
2023/07/12 13:37:57;;;;;;;;;10.00;9.00;;;;;31.99;84.20;98324.53;6291196;27;96934;-65
2023/07/12 13:41:04;;;;;;;;;12.40;10.40;;;;;32.14;84.63;98329.16;6300432;27;96366;-66
2023/07/12 13:44:13;;;;;;;;;11.33;11.00;;;;;32.04;83.11;98310.28;6280523;27;98142;-66
2023/07/12 13:47:21;;;;;;;;;11.80;10.80;;;;;32.24;83.47;98324.91;6289652;27;96580;-66
2023/07/12 13:50:27;;;;;;;;;13.00;12.00;;;;;32.11;83.39;98317.94;6298769;27;96311;-66
2023/07/12 13:53:30;;;;;;;;;12.40;11.00;;;;;32.22;83.64;98321.69;6280872;27;96356;-65
2023/07/12 13:56:33;;;;;;;;;15.00;14.00;;;;;32.22;83.76;98313.31;6281061;27;96405;-66
2023/07/12 13:59:40;;;;;;;;;10.40;9.00;;;;;32.25;84.42;98301.44;6303842;27;96315;-66
2023/07/12 14:02:45;;;;;;;;;15.40;13.00;;;;;32.33;85.71;98293.94;6297417;27;96517;-66
2023/07/12 14:05:52;;;;;;;;;10.00;10.00;;;;;32.41;83.54;98302.00;6296915;27;96345;-66
2023/07/12 14:09:00;;;;;;;;;12.40;10.40;;;;;32.42;84.00;98292.47;6298969;27;96386;-66
2023/07/12 14:12:04;;;;;;;;;12.00;11.00;;;;;32.55;84.54;98288.22;6281620;27;96978;-66